createdAt,value
2016-08-30T00:00:47.814Z,0
2016-08-30T00:01:50.489Z,0
2016-08-30T00:02:53.782Z,0
2016-08-30T00:03:54.274Z,0
2016-08-30T00:04:54.923Z,0
2016-08-30T00:05:55.596Z,0
2016-08-30T00:06:56.234Z,0
2016-08-30T00:07:56.855Z,0
2016-08-30T00:08:57.481Z,0
2016-08-30T00:09:58.103Z,0
2016-08-30T00:10:58.716Z,0
2016-08-30T00:11:59.339Z,0
2016-08-30T00:12:59.961Z,0
2016-08-30T00:14:00.581Z,0
2016-08-30T00:15:01.203Z,0
2016-08-30T00:16:01.828Z,0
2016-08-30T00:17:02.441Z,0
2016-08-30T00:18:03.069Z,0
2016-08-30T00:19:03.704Z,0
2016-08-30T00:20:04.339Z,0
2016-08-30T00:21:04.960Z,0
2016-08-30T00:22:05.592Z,0
2016-08-30T00:23:06.227Z,0
2016-08-30T00:24:06.842Z,0
2016-08-30T00:25:07.450Z,0
2016-08-30T00:26:08.119Z,0
2016-08-30T00:27:08.736Z,0
2016-08-30T00:28:09.375Z,0
2016-08-30T00:29:10.028Z,0
2016-08-30T00:30:11.221Z,0
2016-08-30T00:31:11.853Z,0
2016-08-30T00:32:12.474Z,0
2016-08-30T00:33:13.120Z,0
2016-08-30T00:34:13.742Z,0
2016-08-30T00:35:14.368Z,0
2016-08-30T00:36:14.993Z,0
2016-08-30T00:37:15.617Z,0
2016-08-30T00:38:16.231Z,0
2016-08-30T00:39:16.843Z,0
2016-08-30T00:40:17.458Z,0
2016-08-30T00:41:18.092Z,0
2016-08-30T00:42:18.711Z,0
2016-08-30T00:43:19.335Z,0
2016-08-30T00:44:19.950Z,0
2016-08-30T00:45:20.571Z,0
2016-08-30T00:46:21.191Z,0
2016-08-30T00:47:21.818Z,0
2016-08-30T00:48:22.436Z,0
2016-08-30T00:49:23.072Z,0
2016-08-30T00:50:24.133Z,0
2016-08-30T00:51:24.753Z,0
2016-08-30T00:52:25.368Z,0
2016-08-30T00:53:25.997Z,0
2016-08-30T00:54:26.627Z,0
2016-08-30T00:55:27.258Z,0
2016-08-30T00:56:28.862Z,0
2016-08-30T00:57:29.488Z,0
2016-08-30T00:58:30.121Z,0
2016-08-30T00:59:30.741Z,0
2016-08-30T01:00:31.361Z,0
2016-08-30T01:01:31.984Z,0
2016-08-30T01:02:32.632Z,0
2016-08-30T01:03:33.248Z,0
2016-08-30T01:04:33.889Z,0
2016-08-30T01:05:34.519Z,0
2016-08-30T01:06:35.144Z,0
2016-08-30T01:07:35.762Z,0
2016-08-30T01:08:36.395Z,0
2016-08-30T01:09:37.038Z,0
2016-08-30T01:10:37.651Z,0
2016-08-30T01:11:38.289Z,0
2016-08-30T01:12:38.916Z,0
2016-08-30T01:13:39.538Z,0
2016-08-30T01:14:40.162Z,0
2016-08-30T01:15:40.781Z,0
2016-08-30T01:16:41.399Z,0
2016-08-30T01:17:42.023Z,0
2016-08-30T01:18:42.648Z,0
2016-08-30T01:19:43.265Z,0
2016-08-30T01:20:43.881Z,0
2016-08-30T01:21:44.502Z,0
2016-08-30T01:22:45.124Z,0
2016-08-30T01:23:45.751Z,0
2016-08-30T01:24:46.372Z,0
2016-08-30T01:25:46.990Z,0
2016-08-30T01:26:47.636Z,0
2016-08-30T01:27:48.264Z,0
2016-08-30T01:28:48.893Z,0
2016-08-30T01:29:49.514Z,0
2016-08-30T01:30:50.137Z,0
2016-08-30T01:31:50.762Z,0
2016-08-30T01:32:51.386Z,0
2016-08-30T01:33:52.002Z,0
2016-08-30T01:34:52.620Z,0
2016-08-30T01:35:53.243Z,0
2016-08-30T01:36:53.859Z,0
2016-08-30T01:37:54.482Z,0
2016-08-30T01:38:55.117Z,0
2016-08-30T01:39:55.733Z,0
2016-08-30T01:40:56.356Z,0
2016-08-30T01:41:56.976Z,0
2016-08-30T01:42:57.593Z,0
2016-08-30T01:43:58.218Z,0
2016-08-30T01:44:58.838Z,0
2016-08-30T01:45:59.458Z,0
2016-08-30T01:47:00.072Z,0
2016-08-30T01:48:00.693Z,0
2016-08-30T01:49:01.320Z,0
2016-08-30T01:50:01.938Z,0
2016-08-30T01:51:02.570Z,0
2016-08-30T01:52:03.206Z,0
2016-08-30T01:53:03.825Z,0
2016-08-30T01:54:04.439Z,0
2016-08-30T01:55:05.072Z,0
2016-08-30T01:56:05.684Z,0
2016-08-30T01:57:06.312Z,0
2016-08-30T01:58:06.934Z,0
2016-08-30T01:59:07.546Z,0
2016-08-30T02:00:08.163Z,0
2016-08-30T02:01:08.803Z,0
2016-08-30T02:02:09.424Z,0
2016-08-30T02:03:10.048Z,0
2016-08-30T02:04:10.669Z,0
2016-08-30T02:05:11.289Z,0
2016-08-30T02:06:11.915Z,0
2016-08-30T02:07:12.533Z,0
2016-08-30T02:08:13.153Z,0
2016-08-30T02:09:13.776Z,0
2016-08-30T02:10:14.397Z,0
2016-08-30T02:11:15.020Z,0
2016-08-30T02:12:15.642Z,0
2016-08-30T02:13:16.259Z,0
2016-08-30T02:14:16.871Z,0
2016-08-30T02:15:17.497Z,0
2016-08-30T02:16:18.115Z,0
2016-08-30T02:17:18.739Z,0
2016-08-30T02:18:19.380Z,0
2016-08-30T02:19:20.013Z,0
2016-08-30T02:20:20.643Z,0
2016-08-30T02:21:21.267Z,0
2016-08-30T02:22:21.900Z,0
2016-08-30T02:23:22.518Z,0
2016-08-30T02:24:23.135Z,0
2016-08-30T02:25:23.761Z,0
2016-08-30T02:26:24.382Z,0
2016-08-30T02:27:25.014Z,0
2016-08-30T02:28:25.649Z,0
2016-08-30T02:29:26.273Z,0
2016-08-30T02:30:26.897Z,0
2016-08-30T02:31:27.517Z,0
2016-08-30T02:32:28.138Z,0
2016-08-30T02:33:28.759Z,0
2016-08-30T02:34:29.380Z,0
2016-08-30T02:35:30.003Z,0
2016-08-30T02:36:30.627Z,0
2016-08-30T02:37:31.244Z,0
2016-08-30T02:38:31.872Z,0
2016-08-30T02:39:32.501Z,0
2016-08-30T02:40:33.126Z,0
2016-08-30T02:41:33.747Z,0
2016-08-30T02:42:34.365Z,0
2016-08-30T02:43:34.983Z,0
2016-08-30T02:44:35.600Z,0
2016-08-30T02:45:36.219Z,0
2016-08-30T02:46:36.841Z,0
2016-08-30T02:47:37.462Z,0
2016-08-30T02:48:38.083Z,0
2016-08-30T02:49:38.706Z,0
2016-08-30T02:50:39.323Z,0
2016-08-30T02:51:39.948Z,0
2016-08-30T02:52:40.565Z,0
2016-08-30T02:53:41.182Z,0
2016-08-30T02:54:41.803Z,0
2016-08-30T02:55:42.468Z,0
2016-08-30T02:56:43.088Z,0
2016-08-30T02:57:43.734Z,0
2016-08-30T02:58:44.357Z,0
2016-08-30T02:59:44.982Z,0
2016-08-30T03:00:45.613Z,0
2016-08-30T03:01:46.233Z,0
2016-08-30T03:02:46.855Z,0
2016-08-30T03:03:47.475Z,0
2016-08-30T03:04:48.104Z,0
2016-08-30T03:05:48.736Z,0
2016-08-30T03:06:49.351Z,0
2016-08-30T03:07:49.980Z,0
2016-08-30T03:08:50.596Z,0
2016-08-30T03:09:51.221Z,0
2016-08-30T03:10:51.843Z,0
2016-08-30T03:11:52.466Z,0
2016-08-30T03:12:53.087Z,0
2016-08-30T03:13:53.706Z,0
2016-08-30T03:14:54.320Z,0
2016-08-30T03:15:54.948Z,0
2016-08-30T03:16:55.566Z,0
2016-08-30T03:17:56.233Z,0
2016-08-30T03:18:56.852Z,0
2016-08-30T03:19:57.484Z,0
2016-08-30T03:20:58.109Z,0
2016-08-30T03:21:58.723Z,0
2016-08-30T03:22:59.349Z,0
2016-08-30T03:23:59.966Z,0
2016-08-30T03:25:00.595Z,0
2016-08-30T03:26:01.211Z,0
2016-08-30T03:27:01.824Z,0
2016-08-30T03:28:02.455Z,0
2016-08-30T03:29:03.082Z,0
2016-08-30T03:30:03.714Z,0
2016-08-30T03:31:04.342Z,0
2016-08-30T03:32:04.973Z,0
2016-08-30T03:33:05.610Z,0
2016-08-30T03:34:06.224Z,0
2016-08-30T03:35:06.855Z,0
2016-08-30T03:36:07.483Z,0
2016-08-30T03:37:08.097Z,0
2016-08-30T03:38:08.715Z,0
2016-08-30T03:39:09.338Z,0
2016-08-30T03:40:09.974Z,0
2016-08-30T03:41:10.602Z,0
2016-08-30T03:42:11.225Z,0
2016-08-30T03:43:11.854Z,0
2016-08-30T03:44:12.476Z,0
2016-08-30T03:45:13.127Z,0
2016-08-30T03:46:13.761Z,0
2016-08-30T03:47:14.394Z,0
2016-08-30T03:48:15.026Z,0
2016-08-30T03:49:15.689Z,0
2016-08-30T03:50:16.309Z,0
2016-08-30T03:51:16.929Z,0
2016-08-30T03:52:17.557Z,0
2016-08-30T03:53:18.184Z,0
2016-08-30T03:54:18.814Z,0
2016-08-30T03:55:19.439Z,0
2016-08-30T03:56:20.071Z,0
2016-08-30T03:57:20.692Z,0
2016-08-30T03:58:21.322Z,0
2016-08-30T03:59:21.950Z,0
2016-08-30T04:00:23.120Z,0
2016-08-30T04:01:23.741Z,0
2016-08-30T04:02:24.369Z,0
2016-08-30T04:03:24.980Z,0
2016-08-30T04:04:25.620Z,0
2016-08-30T04:05:26.242Z,0
2016-08-30T04:06:26.864Z,0
2016-08-30T04:07:27.482Z,0
2016-08-30T04:08:28.103Z,0
2016-08-30T04:09:28.725Z,0
2016-08-30T04:10:29.345Z,0
2016-08-30T04:11:29.996Z,0
2016-08-30T04:12:30.628Z,0
2016-08-30T04:13:31.263Z,0
2016-08-30T04:14:31.891Z,0
2016-08-30T04:15:32.511Z,0
2016-08-30T04:16:33.119Z,0
2016-08-30T04:17:33.741Z,0
2016-08-30T04:18:34.364Z,0
2016-08-30T04:19:34.981Z,0
2016-08-30T04:20:35.602Z,0
2016-08-30T04:21:36.225Z,0
2016-08-30T04:22:36.855Z,0
2016-08-30T04:23:37.468Z,0
2016-08-30T04:24:38.088Z,0
2016-08-30T04:25:38.717Z,0
2016-08-30T04:26:39.346Z,0
2016-08-30T04:27:39.984Z,0
2016-08-30T04:28:40.625Z,0
2016-08-30T04:29:41.238Z,5
2016-08-30T04:30:41.913Z,5
2016-08-30T04:31:42.541Z,5
2016-08-30T04:32:43.165Z,5
2016-08-30T04:33:43.785Z,5
2016-08-30T04:34:44.409Z,5
2016-08-30T04:35:45.028Z,5
2016-08-30T04:36:45.660Z,5
2016-08-30T04:37:46.297Z,5
2016-08-30T04:38:46.929Z,5
2016-08-30T04:39:47.563Z,5
2016-08-30T04:40:48.194Z,10
2016-08-30T04:41:48.817Z,10
2016-08-30T04:42:49.448Z,10
2016-08-30T04:43:50.080Z,10
2016-08-30T04:44:50.707Z,10
2016-08-30T04:45:51.329Z,10
2016-08-30T04:46:51.968Z,10
2016-08-30T04:47:52.576Z,10
2016-08-30T04:48:53.218Z,15
2016-08-30T04:49:53.840Z,15
2016-08-30T04:50:54.459Z,15
2016-08-30T04:51:55.096Z,15
2016-08-30T04:52:55.721Z,15
2016-08-30T04:53:56.338Z,15
2016-08-30T04:54:56.955Z,15
2016-08-30T04:55:57.585Z,15
2016-08-30T04:56:58.223Z,15
2016-08-30T04:57:58.849Z,20
2016-08-30T04:58:59.476Z,20
2016-08-30T05:00:00.107Z,20
2016-08-30T05:01:00.734Z,20
2016-08-30T05:02:01.358Z,20
2016-08-30T05:03:01.980Z,20
2016-08-30T05:04:02.600Z,20
2016-08-30T05:05:03.242Z,20
2016-08-30T05:06:03.875Z,25
2016-08-30T05:07:04.513Z,25
2016-08-30T05:08:05.138Z,25
2016-08-30T05:09:05.771Z,25
2016-08-30T05:10:06.398Z,25
2016-08-30T05:11:07.030Z,25
2016-08-30T05:12:07.658Z,25
2016-08-30T05:13:08.294Z,25
2016-08-30T05:14:08.914Z,30
2016-08-30T05:15:09.526Z,30
2016-08-30T05:16:10.150Z,30
2016-08-30T05:17:10.805Z,30
2016-08-30T05:18:11.427Z,30
2016-08-30T05:19:12.052Z,30
2016-08-30T05:20:12.922Z,30
2016-08-30T05:21:13.542Z,30
2016-08-30T05:22:14.198Z,35
2016-08-30T05:23:14.836Z,35
2016-08-30T05:24:15.455Z,35
2016-08-30T05:25:16.587Z,35
2016-08-30T05:26:17.212Z,35
2016-08-30T05:27:17.847Z,35
2016-08-30T05:28:18.465Z,35
2016-08-30T05:29:19.088Z,35
2016-08-30T05:30:19.711Z,35
2016-08-30T05:31:20.349Z,35
2016-08-30T05:32:20.977Z,40
2016-08-30T05:33:21.593Z,40
2016-08-30T05:34:22.216Z,40
2016-08-30T05:35:22.931Z,40
2016-08-30T05:36:23.579Z,40
2016-08-30T05:37:24.197Z,45
2016-08-30T05:38:24.826Z,45
2016-08-30T05:39:25.445Z,45
2016-08-30T05:40:35.464Z,50
2016-08-30T05:41:39.520Z,50
2016-08-30T05:42:40.635Z,55
2016-08-30T05:43:41.304Z,60
2016-08-30T05:44:41.947Z,60
2016-08-30T05:45:46.030Z,65
2016-08-30T05:46:46.397Z,70
2016-08-30T05:47:47.051Z,75
2016-08-30T05:48:47.676Z,75
2016-08-30T05:49:48.302Z,75
2016-08-30T05:50:48.951Z,75
2016-08-30T05:51:49.613Z,80
2016-08-30T05:52:50.243Z,95
2016-08-30T05:58:17.123Z,110
2016-08-30T05:59:18.327Z,105
2016-08-30T06:00:26.982Z,105
2016-08-30T06:01:42.796Z,120
2016-08-30T06:02:45.192Z,135
2016-08-30T06:03:44.070Z,135
2016-08-30T06:04:44.792Z,130
2016-08-30T06:05:45.741Z,130
2016-08-30T06:06:46.912Z,135
2016-08-30T06:07:47.547Z,135
2016-08-30T06:08:50.931Z,135
2016-08-30T06:09:51.880Z,140
2016-08-30T06:10:58.467Z,140
2016-08-30T06:11:59.085Z,140
2016-08-30T06:12:59.732Z,140
2016-08-30T06:14:00.367Z,140
2016-08-30T06:15:03.171Z,140
2016-08-30T06:16:03.555Z,140
2016-08-30T06:17:04.201Z,140
2016-08-30T06:18:04.855Z,140
2016-08-30T06:19:05.570Z,140
2016-08-30T06:20:13.789Z,140
2016-08-30T06:21:12.749Z,140
2016-08-30T06:22:13.431Z,140
2016-08-30T06:23:14.064Z,135
2016-08-30T06:24:14.686Z,135
2016-08-30T06:25:15.331Z,135
2016-08-30T06:26:15.962Z,125
2016-08-30T06:27:16.586Z,130
2016-08-30T06:28:17.225Z,105
2016-08-30T06:29:17.848Z,120
2016-08-30T06:30:18.468Z,125
2016-08-30T06:31:19.088Z,125
2016-08-30T06:32:19.715Z,125
2016-08-30T06:33:20.335Z,125
2016-08-30T06:34:20.973Z,125
2016-08-30T06:35:21.650Z,125
2016-08-30T06:36:22.277Z,120
2016-08-30T06:37:22.911Z,120
2016-08-30T06:38:23.558Z,120
2016-08-30T06:39:24.186Z,120
2016-08-30T06:40:25.110Z,120
2016-08-30T06:41:25.738Z,120
2016-08-30T06:42:26.373Z,120
2016-08-30T06:43:27.000Z,120
2016-08-30T06:44:27.633Z,120
2016-08-30T06:45:28.256Z,120
2016-08-30T06:46:28.883Z,120
2016-08-30T06:47:29.524Z,120
2016-08-30T06:48:30.147Z,120
2016-08-30T06:49:30.788Z,120
2016-08-30T06:50:31.442Z,120
2016-08-30T06:51:32.147Z,120
2016-08-30T06:52:32.781Z,120
2016-08-30T06:53:33.406Z,120
2016-08-30T06:54:34.058Z,120
2016-08-30T06:55:34.698Z,120
2016-08-30T06:56:35.318Z,120
2016-08-30T06:57:35.954Z,120
2016-08-30T06:58:36.586Z,125
2016-08-30T06:59:37.222Z,125
2016-08-30T07:00:37.878Z,125
2016-08-30T07:01:38.493Z,130
2016-08-30T07:02:39.121Z,125
2016-08-30T07:03:39.749Z,125
2016-08-30T07:04:40.378Z,130
2016-08-30T07:05:41.024Z,125
2016-08-30T07:06:41.697Z,130
2016-08-30T07:07:42.323Z,130
2016-08-30T07:08:42.954Z,130
2016-08-30T07:09:43.579Z,130
2016-08-30T07:10:44.226Z,130
2016-08-30T07:11:44.849Z,130
2016-08-30T07:12:45.477Z,130
2016-08-30T07:13:46.095Z,130
2016-08-30T07:14:46.722Z,130
2016-08-30T07:15:47.363Z,130
2016-08-30T07:16:48.004Z,130
2016-08-30T07:17:48.652Z,130
2016-08-30T07:18:49.297Z,130
2016-08-30T07:19:49.982Z,130
2016-08-30T07:20:51.663Z,130
2016-08-30T07:21:52.319Z,130
2016-08-30T07:22:52.955Z,130
2016-08-30T07:23:53.645Z,135
2016-08-30T07:24:54.327Z,135
2016-08-30T07:25:54.983Z,135
2016-08-30T07:26:55.617Z,135
2016-08-30T07:27:56.245Z,135
2016-08-30T07:28:56.871Z,135
2016-08-30T07:29:57.505Z,135
2016-08-30T07:30:58.131Z,135
2016-08-30T07:31:58.774Z,135
2016-08-30T07:32:59.398Z,135
2016-08-30T07:34:00.027Z,135
2016-08-30T07:35:00.832Z,135
2016-08-30T07:36:02.994Z,135
2016-08-30T07:37:03.620Z,135
2016-08-30T07:38:04.253Z,140
2016-08-30T07:39:04.885Z,135
2016-08-30T07:40:06.129Z,135
2016-08-30T07:41:06.773Z,135
2016-08-30T07:42:07.402Z,135
2016-08-30T07:43:08.042Z,135
2016-08-30T07:44:08.668Z,135
2016-08-30T07:45:09.299Z,135
2016-08-30T07:46:09.916Z,135
2016-08-30T07:47:10.570Z,140
2016-08-30T07:48:11.201Z,140
2016-08-30T07:49:11.830Z,140
2016-08-30T07:50:12.458Z,140
2016-08-30T07:51:13.110Z,140
2016-08-30T07:52:13.731Z,140
2016-08-30T07:53:14.355Z,140
2016-08-30T07:54:15.009Z,140
2016-08-30T07:55:15.742Z,140
2016-08-30T07:56:16.370Z,140
2016-08-30T07:57:17.042Z,140
2016-08-30T07:58:17.665Z,140
2016-08-30T07:59:18.285Z,145
2016-08-30T08:00:19.868Z,150
2016-08-30T08:01:20.531Z,150
2016-08-30T08:02:21.174Z,145
2016-08-30T08:03:21.796Z,135
2016-08-30T08:04:22.441Z,100
2016-08-30T08:05:23.115Z,145
2016-08-30T08:06:23.748Z,115
2016-08-30T08:07:24.416Z,105
2016-08-30T08:08:25.114Z,130
2016-08-30T08:09:25.767Z,110
2016-08-30T08:10:26.623Z,145
2016-08-30T08:11:27.273Z,140
2016-08-30T08:12:27.932Z,140
2016-08-30T08:13:28.583Z,145
2016-08-30T08:14:29.201Z,140
2016-08-30T08:15:30.143Z,140
2016-08-30T08:16:30.841Z,140
2016-08-30T08:17:31.486Z,140
2016-08-30T08:18:32.139Z,145
2016-08-30T08:19:32.782Z,150
2016-08-30T08:20:33.411Z,145
2016-08-30T08:21:34.064Z,150
2016-08-30T08:22:34.676Z,140
2016-08-30T08:23:35.295Z,140
2016-08-30T08:24:35.921Z,140
2016-08-30T08:25:37.113Z,140
2016-08-30T08:26:37.742Z,140
2016-08-30T08:27:38.367Z,160
2016-08-30T08:28:38.991Z,150
2016-08-30T08:29:39.629Z,160
2016-08-30T08:30:40.270Z,160
2016-08-30T08:31:40.895Z,150
2016-08-30T08:32:41.518Z,145
2016-08-30T08:33:42.137Z,155
2016-08-30T08:34:42.777Z,165
2016-08-30T08:35:43.435Z,150
2016-08-30T08:36:44.074Z,140
2016-08-30T08:37:44.693Z,105
2016-08-30T08:38:45.318Z,160
2016-08-30T08:39:45.969Z,140
2016-08-30T08:40:48.602Z,150
2016-08-30T08:42:23.933Z,200
2016-08-30T08:43:24.583Z,200
2016-08-30T08:44:25.507Z,190
2016-08-30T08:45:34.942Z,205
2016-08-30T08:46:35.618Z,165
2016-08-30T08:47:36.359Z,135
2016-08-30T08:48:37.045Z,155
2016-08-30T08:49:37.691Z,135
2016-08-30T08:50:38.363Z,145
2016-08-30T08:51:39.124Z,195
2016-08-30T08:52:39.773Z,150
2016-08-30T08:53:40.412Z,190
2016-08-30T08:54:41.089Z,175
2016-08-30T08:55:41.970Z,170
2016-08-30T08:56:42.611Z,160
2016-08-30T08:57:43.244Z,155
2016-08-30T08:58:43.882Z,205
2016-08-30T08:59:44.635Z,180
2016-08-30T09:00:45.786Z,150
2016-08-30T09:01:46.441Z,140
2016-08-30T09:02:47.086Z,140
2016-08-30T09:03:47.721Z,150
2016-08-30T09:04:49.203Z,135
2016-08-30T09:05:49.697Z,125
2016-08-30T09:06:50.272Z,135
2016-08-30T09:07:50.902Z,140
2016-08-30T09:08:51.546Z,145
2016-08-30T09:09:52.182Z,155
2016-08-30T09:10:52.864Z,160
2016-08-30T09:11:53.519Z,165
2016-08-30T09:12:54.138Z,125
2016-08-30T09:13:54.764Z,130
2016-08-30T09:14:55.400Z,125
2016-08-30T09:15:56.024Z,145
2016-08-30T09:16:56.662Z,140
2016-08-30T09:17:57.304Z,150
2016-08-30T09:18:57.928Z,160
2016-08-30T09:19:58.561Z,165
2016-08-30T09:20:59.212Z,155
2016-08-30T09:21:59.878Z,145
2016-08-30T09:23:00.527Z,135
2016-08-30T09:24:01.147Z,115
2016-08-30T09:25:01.770Z,105
2016-08-30T09:26:02.390Z,105
2016-08-30T09:27:03.094Z,115
2016-08-30T09:28:03.718Z,125
2016-08-30T09:29:04.355Z,150
2016-08-30T09:30:05.013Z,155
2016-08-30T09:31:05.642Z,135
2016-08-30T09:32:06.293Z,125
2016-08-30T09:33:06.928Z,125
2016-08-30T09:34:07.584Z,125
2016-08-30T09:35:08.573Z,120
2016-08-30T09:36:09.218Z,135
2016-08-30T09:37:09.853Z,125
2016-08-30T09:38:10.503Z,140
2016-08-30T09:39:11.126Z,140
2016-08-30T09:40:11.757Z,130
2016-08-30T09:41:12.390Z,130
2016-08-30T09:42:13.026Z,150
2016-08-30T09:43:13.661Z,160
2016-08-30T09:44:14.359Z,155
2016-08-30T09:45:14.978Z,130
2016-08-30T09:46:15.621Z,115
2016-08-30T09:47:16.259Z,120
2016-08-30T09:48:16.897Z,135
2016-08-30T09:49:17.589Z,150
2016-08-30T09:50:18.211Z,160
2016-08-30T09:51:18.828Z,170
2016-08-30T09:52:19.459Z,165
2016-08-30T09:53:20.094Z,170
2016-08-30T09:54:20.722Z,185
2016-08-30T09:55:21.361Z,180
2016-08-30T09:56:21.979Z,135
2016-08-30T09:57:22.648Z,115
2016-08-30T09:58:23.298Z,120
2016-08-30T09:59:23.928Z,135
2016-08-30T10:00:24.568Z,115
2016-08-30T10:01:25.193Z,125
2016-08-30T10:02:25.826Z,135
2016-08-30T10:03:26.475Z,150
2016-08-30T10:04:27.138Z,145
2016-08-30T10:05:27.841Z,140
2016-08-30T10:06:28.483Z,150
2016-08-30T10:07:29.123Z,140
2016-08-30T10:08:29.745Z,125
2016-08-30T10:09:30.372Z,145
2016-08-30T10:10:31.010Z,145
2016-08-30T10:11:31.643Z,150
2016-08-30T10:12:32.278Z,160
2016-08-30T10:13:32.905Z,160
2016-08-30T10:14:33.562Z,160
2016-08-30T10:15:34.210Z,170
2016-08-30T10:16:34.834Z,160
2016-08-30T10:17:35.468Z,160
2016-08-30T10:18:36.109Z,160
2016-08-30T10:19:36.803Z,145
2016-08-30T10:20:37.424Z,150
2016-08-30T10:21:38.063Z,130
2016-08-30T10:22:38.692Z,120
2016-08-30T10:23:39.346Z,135
2016-08-30T10:24:39.985Z,150
2016-08-30T10:25:40.627Z,160
2016-08-30T10:26:41.264Z,185
2016-08-30T10:27:41.891Z,180
2016-08-30T10:28:42.522Z,170
2016-08-30T10:29:43.153Z,180
2016-08-30T10:30:43.790Z,190
2016-08-30T10:31:44.419Z,175
2016-08-30T10:32:45.058Z,150
2016-08-30T10:33:45.681Z,120
2016-08-30T10:34:46.348Z,120
2016-08-30T10:35:46.976Z,125
2016-08-30T10:36:47.624Z,110
2016-08-30T10:37:48.254Z,125
2016-08-30T10:38:48.882Z,125
2016-08-30T10:39:49.511Z,120
2016-08-30T10:40:50.143Z,120
2016-08-30T10:41:50.767Z,115
2016-08-30T10:42:51.401Z,120
2016-08-30T10:43:52.041Z,135
2016-08-30T10:44:52.703Z,160
2016-08-30T10:45:53.326Z,175
2016-08-30T10:46:53.953Z,170
2016-08-30T10:47:54.609Z,160
2016-08-30T10:48:55.242Z,150
2016-08-30T10:49:55.875Z,130
2016-08-30T10:50:56.573Z,130
2016-08-30T10:51:57.194Z,135
2016-08-30T10:52:57.838Z,125
2016-08-30T10:53:58.461Z,125
2016-08-30T10:54:59.095Z,115
2016-08-30T10:55:59.752Z,115
2016-08-30T10:57:00.386Z,110
2016-08-30T10:58:01.019Z,110
2016-08-30T10:59:01.671Z,110
2016-08-30T11:00:02.322Z,110
2016-08-30T11:01:02.976Z,120
2016-08-30T11:02:03.622Z,135
2016-08-30T11:03:04.275Z,130
2016-08-30T11:04:04.894Z,120
2016-08-30T11:05:05.519Z,110
2016-08-30T11:06:06.138Z,115
2016-08-30T11:07:06.759Z,120
2016-08-30T11:08:07.393Z,120
2016-08-30T11:09:08.019Z,120
2016-08-30T11:10:08.722Z,115
2016-08-30T11:11:09.347Z,110
2016-08-30T11:12:10.003Z,110
2016-08-30T11:13:10.636Z,110
2016-08-30T11:14:11.257Z,110
2016-08-30T11:15:12.244Z,115
2016-08-30T11:16:12.871Z,120
2016-08-30T11:17:13.523Z,125
2016-08-30T11:18:14.155Z,125
2016-08-30T11:19:14.777Z,120
2016-08-30T11:20:15.416Z,120
2016-08-30T11:21:16.046Z,120
2016-08-30T11:22:16.691Z,115
2016-08-30T11:23:17.321Z,105
2016-08-30T11:24:17.971Z,115
2016-08-30T11:25:18.609Z,130
2016-08-30T11:26:19.247Z,145
2016-08-30T11:27:19.905Z,155
2016-08-30T11:28:20.548Z,135
2016-08-30T11:29:21.184Z,135
2016-08-30T11:30:21.816Z,125
2016-08-30T11:31:22.456Z,125
2016-08-30T11:32:23.110Z,125
2016-08-30T11:33:23.754Z,135
2016-08-30T11:34:24.390Z,135
2016-08-30T11:35:25.011Z,135
2016-08-30T11:36:25.632Z,135
2016-08-30T11:37:26.283Z,140
2016-08-30T11:38:26.916Z,170
2016-08-30T11:39:27.545Z,185
2016-08-30T11:40:28.180Z,180
2016-08-30T11:41:28.803Z,175
2016-08-30T11:42:29.433Z,160
2016-08-30T11:43:30.061Z,135
2016-08-30T11:44:30.702Z,135
2016-08-30T11:45:31.343Z,145
2016-08-30T11:46:31.978Z,135
2016-08-30T11:47:32.608Z,135
2016-08-30T11:48:33.239Z,130
2016-08-30T11:49:33.888Z,135
2016-08-30T11:50:34.635Z,140
2016-08-30T11:51:35.275Z,145
2016-08-30T11:52:35.905Z,150
2016-08-30T11:53:36.542Z,155
2016-08-30T11:54:37.194Z,130
2016-08-30T11:55:37.816Z,125
2016-08-30T11:56:38.445Z,135
2016-08-30T11:57:39.071Z,125
2016-08-30T11:58:39.685Z,120
2016-08-30T11:59:40.319Z,125
2016-08-30T12:00:40.945Z,120
2016-08-30T12:01:41.589Z,120
2016-08-30T12:02:42.215Z,130
2016-08-30T12:03:42.850Z,135
2016-08-30T12:04:43.475Z,155
2016-08-30T12:05:44.102Z,160
2016-08-30T12:06:44.741Z,155
2016-08-30T12:07:45.384Z,145
2016-08-30T12:08:46.031Z,130
2016-08-30T12:09:46.674Z,115
2016-08-30T12:10:47.304Z,105
2016-08-30T12:11:47.930Z,95
2016-08-30T12:12:48.551Z,95
2016-08-30T12:13:49.176Z,95
2016-08-30T12:14:49.808Z,95
2016-08-30T12:15:50.511Z,100
2016-08-30T12:16:51.133Z,110
2016-08-30T12:17:51.749Z,120
2016-08-30T12:18:52.371Z,135
2016-08-30T12:19:52.995Z,135
2016-08-30T12:20:53.618Z,135
2016-08-30T12:21:54.260Z,140
2016-08-30T12:22:54.884Z,150
2016-08-30T12:23:55.522Z,155
2016-08-30T12:24:56.213Z,150
2016-08-30T12:25:56.856Z,140
2016-08-30T12:26:57.492Z,140
2016-08-30T12:27:58.124Z,130
2016-08-30T12:28:58.762Z,115
2016-08-30T12:29:59.407Z,115
2016-08-30T12:31:00.046Z,120
2016-08-30T12:32:00.672Z,135
2016-08-30T12:33:01.295Z,140
2016-08-30T12:34:01.934Z,135
2016-08-30T12:35:02.564Z,135
2016-08-30T12:36:03.215Z,135
2016-08-30T12:37:03.848Z,145
2016-08-30T12:38:04.484Z,155
2016-08-30T12:39:05.104Z,160
2016-08-30T12:40:05.736Z,150
2016-08-30T12:41:06.360Z,140
2016-08-30T12:42:06.989Z,130
2016-08-30T12:43:07.623Z,115
2016-08-30T12:44:08.245Z,110
2016-08-30T12:45:08.867Z,115
2016-08-30T12:46:09.488Z,125
2016-08-30T12:47:10.112Z,145
2016-08-30T12:48:10.972Z,155
2016-08-30T12:49:11.595Z,175
2016-08-30T12:50:12.491Z,185
2016-08-30T12:51:13.125Z,185
2016-08-30T12:52:13.763Z,165
2016-08-30T12:53:14.396Z,175
2016-08-30T12:54:15.061Z,185
2016-08-30T12:55:15.697Z,180
2016-08-30T12:56:16.333Z,170
2016-08-30T12:57:16.981Z,170
2016-08-30T12:58:17.607Z,180
2016-08-30T12:59:18.260Z,175
2016-08-30T13:00:18.885Z,170
2016-08-30T13:01:19.540Z,175
2016-08-30T13:02:20.169Z,165
2016-08-30T13:03:20.810Z,155
2016-08-30T13:04:21.438Z,150
2016-08-30T13:05:22.411Z,155
2016-08-30T13:06:23.034Z,150
2016-08-30T13:07:23.667Z,140
2016-08-30T13:08:24.301Z,130
2016-08-30T13:09:24.965Z,120
2016-08-30T13:10:25.610Z,110
2016-08-30T13:11:26.251Z,95
2016-08-30T13:12:26.928Z,95
2016-08-30T13:13:27.566Z,95
2016-08-30T13:14:28.204Z,100
2016-08-30T13:15:29.009Z,105
2016-08-30T13:16:29.642Z,110
2016-08-30T13:17:30.276Z,110
2016-08-30T13:18:30.927Z,115
2016-08-30T13:19:31.563Z,120
2016-08-30T13:20:32.185Z,115
2016-08-30T13:21:32.807Z,115
2016-08-30T13:22:33.432Z,115
2016-08-30T13:23:34.072Z,115
2016-08-30T13:24:34.709Z,110
2016-08-30T13:25:35.498Z,110
2016-08-30T13:26:36.127Z,120
2016-08-30T13:27:36.740Z,125
2016-08-30T13:28:37.376Z,135
2016-08-30T13:29:38.023Z,150
2016-08-30T13:30:38.687Z,160
2016-08-30T13:31:39.354Z,165
2016-08-30T13:32:40.003Z,170
2016-08-30T13:33:40.631Z,175
2016-08-30T13:34:41.283Z,150
2016-08-30T13:35:41.937Z,125
2016-08-30T13:36:42.568Z,110
2016-08-30T13:37:43.207Z,105
2016-08-30T13:38:43.845Z,105
2016-08-30T13:39:44.475Z,105
2016-08-30T13:40:45.117Z,110
2016-08-30T13:41:45.754Z,110
2016-08-30T13:42:46.393Z,115
2016-08-30T13:43:47.035Z,115
2016-08-30T13:44:47.661Z,130
2016-08-30T13:45:48.303Z,145
2016-08-30T13:46:48.942Z,160
2016-08-30T13:47:49.581Z,165
2016-08-30T13:48:50.211Z,165
2016-08-30T13:49:50.913Z,150
2016-08-30T13:50:51.548Z,125
2016-08-30T13:51:52.179Z,105
2016-08-30T13:52:52.829Z,100
2016-08-30T13:53:53.465Z,100
2016-08-30T13:54:54.098Z,100
2016-08-30T13:55:54.760Z,100
2016-08-30T13:56:55.395Z,95
2016-08-30T13:57:56.031Z,100
2016-08-30T13:58:56.796Z,100
2016-08-30T13:59:57.482Z,100
2016-08-30T14:00:58.123Z,100
2016-08-30T14:01:58.774Z,100
2016-08-30T14:02:59.373Z,105
2016-08-30T14:04:00.018Z,115
2016-08-30T14:05:00.671Z,120
2016-08-30T14:06:01.279Z,130
2016-08-30T14:07:01.932Z,130
2016-08-30T14:08:02.567Z,135
2016-08-30T14:09:03.197Z,135
2016-08-30T14:10:03.832Z,125
2016-08-30T14:11:04.462Z,120
2016-08-30T14:12:05.146Z,125
2016-08-30T14:13:05.795Z,125
2016-08-30T14:14:06.445Z,120
2016-08-30T14:15:07.066Z,120
2016-08-30T14:16:07.734Z,120
2016-08-30T14:17:08.365Z,125
2016-08-30T14:18:08.997Z,120
2016-08-30T14:19:09.625Z,120
2016-08-30T14:20:10.253Z,120
2016-08-30T14:21:10.897Z,115
2016-08-30T14:22:11.540Z,115
2016-08-30T14:23:12.168Z,115